createdAt,value
2019-03-18T00:02:04.071Z,71.38
2019-03-18T00:04:32.725Z,72.11
2019-03-18T00:07:01.652Z,73.05
2019-03-18T00:09:30.635Z,74.46
2019-03-18T00:11:59.709Z,75.99
2019-03-18T00:14:28.331Z,76.99
2019-03-18T00:16:56.979Z,79.19
2019-03-18T00:19:25.607Z,80.59
2019-03-18T00:21:54.451Z,81.89
2019-03-18T00:24:23.389Z,82.20
2019-03-18T00:26:52.560Z,81.66
2019-03-18T00:29:21.461Z,81.61
2019-03-18T00:31:50.449Z,81.42
2019-03-18T00:34:19.365Z,80.70
2019-03-18T00:36:48.644Z,80.62
2019-03-18T00:39:17.637Z,80.04
2019-03-18T00:41:46.604Z,79.71
2019-03-18T00:44:15.476Z,79.33
2019-03-18T00:46:44.407Z,78.90
2019-03-18T00:49:13.303Z,78.68
2019-03-18T00:51:41.930Z,78.57
2019-03-18T00:54:10.879Z,78.54
2019-03-18T00:56:40.077Z,78.87
2019-03-18T00:59:09.378Z,78.29
2019-03-18T01:01:37.983Z,77.59
2019-03-18T01:04:06.953Z,77.06
2019-03-18T01:06:35.886Z,77.12
2019-03-18T01:09:06.390Z,77.11
2019-03-18T01:11:34.979Z,76.67
2019-03-18T01:14:03.601Z,76.40
2019-03-18T01:16:32.261Z,76.41
2019-03-18T01:19:00.908Z,75.87
2019-03-18T01:21:29.772Z,75.56
2019-03-18T01:23:58.399Z,75.53
2019-03-18T01:26:27.590Z,75.30
2019-03-18T01:28:56.786Z,76.36
2019-03-18T01:31:25.793Z,76.55
2019-03-18T01:33:54.678Z,76.10
2019-03-18T01:36:23.621Z,75.83
2019-03-18T01:38:52.876Z,75.92
2019-03-18T01:41:21.487Z,76.28
2019-03-18T01:43:50.646Z,75.79
2019-03-18T01:46:19.645Z,75.95
2019-03-18T01:48:48.541Z,75.67
2019-03-18T01:51:17.431Z,75.67
2019-03-18T01:53:46.153Z,76.18
2019-03-18T01:56:14.800Z,76.24
2019-03-18T01:58:43.737Z,76.05
2019-03-18T02:01:12.685Z,76.44
2019-03-18T02:03:41.879Z,76.83
2019-03-18T02:06:10.878Z,77.74
2019-03-18T02:08:39.790Z,77.59
2019-03-18T02:11:08.369Z,78.13
2019-03-18T02:13:37.554Z,77.87
2019-03-18T02:16:06.545Z,77.55
2019-03-18T02:18:35.748Z,77.67
2019-03-18T02:21:04.437Z,77.85
2019-03-18T02:23:33.626Z,77.42
2019-03-18T02:26:02.268Z,76.99
2019-03-18T02:28:31.208Z,77.18
2019-03-18T02:30:59.841Z,77.12
2019-03-18T02:33:28.472Z,77.02
2019-03-18T02:35:57.366Z,77.28
2019-03-18T02:38:26.361Z,77.12
2019-03-18T02:40:55.244Z,77.48
2019-03-18T02:43:24.174Z,76.97
2019-03-18T02:46:08.911Z,77.18
2019-03-18T02:48:23.418Z,77.10
2019-03-18T02:50:52.475Z,77.06
2019-03-18T02:53:21.102Z,76.81
2019-03-18T02:55:50.050Z,76.64
2019-03-18T02:58:18.756Z,76.48
2019-03-18T03:00:48.008Z,76.87
2019-03-18T03:03:16.627Z,76.77
2019-03-18T03:05:45.601Z,76.39
2019-03-18T03:08:14.897Z,75.91
2019-03-18T03:10:43.658Z,75.68
2019-03-18T03:13:12.596Z,75.68
2019-03-18T03:15:41.678Z,75.89
2019-03-18T03:18:10.306Z,75.68
2019-03-18T03:20:39.261Z,75.94
2019-03-18T03:23:08.157Z,76.28
2019-03-18T03:25:36.765Z,76.28
2019-03-18T03:28:05.841Z,76.51
2019-03-18T03:30:34.552Z,76.83
2019-03-18T03:33:03.631Z,76.87
2019-03-18T03:35:32.514Z,76.85
2019-03-18T03:38:01.496Z,76.38
2019-03-18T03:40:30.138Z,76.38
2019-03-18T03:42:59.075Z,75.78
2019-03-18T03:45:27.967Z,75.90
2019-03-18T03:47:56.852Z,75.80
2019-03-18T03:50:25.497Z,76.09
2019-03-18T03:52:54.155Z,76.68
2019-03-18T03:55:22.801Z,76.40
2019-03-18T03:57:51.915Z,76.05
2019-03-18T04:00:20.796Z,76.05
2019-03-18T04:02:49.509Z,75.99
2019-03-18T04:05:18.486Z,76.05
2019-03-18T04:07:47.113Z,76.30
2019-03-18T04:10:16.156Z,77.70
2019-03-18T04:12:45.149Z,78.80
2019-03-18T04:15:13.766Z,79.52
2019-03-18T04:17:42.866Z,79.34
2019-03-18T04:20:12.028Z,79.60
2019-03-18T04:22:40.941Z,79.45
2019-03-18T04:25:09.602Z,78.84
2019-03-18T04:27:38.497Z,79.07
2019-03-18T04:30:08.105Z,79.21
2019-03-18T04:32:36.997Z,79.10
2019-03-18T04:35:05.790Z,79.27
2019-03-18T04:37:34.442Z,79.46
2019-03-18T04:40:03.476Z,79.18
2019-03-18T04:42:32.359Z,79.25
2019-03-18T04:45:01.252Z,79.18
2019-03-18T04:47:30.139Z,79.44
2019-03-18T04:49:59.032Z,79.30
2019-03-18T04:52:27.923Z,79.12
2019-03-18T04:54:57.124Z,78.80
2019-03-18T04:57:26.198Z,78.02
2019-03-18T04:59:55.416Z,78.10
2019-03-18T05:02:24.715Z,78.28
2019-03-18T05:04:53.913Z,78.64
2019-03-18T05:07:22.548Z,78.69
2019-03-18T05:09:51.223Z,78.92
2019-03-18T05:12:20.189Z,78.77
2019-03-18T05:14:50.016Z,79.28
2019-03-18T05:17:26.506Z,79.56
2019-03-18T05:19:49.541Z,79.44
2019-03-18T05:22:18.195Z,79.42
2019-03-18T05:24:47.092Z,78.97
2019-03-18T05:27:16.096Z,79.46
2019-03-18T05:29:45.061Z,79.42
2019-03-18T05:32:14.080Z,79.40
2019-03-18T05:34:42.952Z,79.25
2019-03-18T05:37:11.873Z,79.24
2019-03-18T05:39:40.787Z,79.49
2019-03-18T05:42:09.747Z,79.06
2019-03-18T05:44:38.739Z,78.71
2019-03-18T05:47:07.723Z,79.03
2019-03-18T05:49:37.275Z,78.45
2019-03-18T05:52:06.243Z,78.05
2019-03-18T05:54:35.218Z,77.91
2019-03-18T05:57:04.429Z,77.76
2019-03-18T05:59:33.039Z,77.81
2019-03-18T06:02:01.887Z,77.74
2019-03-18T06:04:30.487Z,77.34
2019-03-18T06:06:59.478Z,77.69
2019-03-18T06:09:28.331Z,77.05
2019-03-18T06:11:56.962Z,77.88
2019-03-18T06:14:25.949Z,77.90
2019-03-18T06:16:54.963Z,78.42
2019-03-18T06:19:23.586Z,78.32
2019-03-18T06:21:52.193Z,79.31
2019-03-18T06:24:21.100Z,80.42
2019-03-18T06:26:50.008Z,80.61
2019-03-18T06:29:18.968Z,79.93
2019-03-18T06:31:47.573Z,79.66
2019-03-18T06:34:16.469Z,80.40
2019-03-18T06:36:45.566Z,79.74
2019-03-18T06:39:14.857Z,79.67
2019-03-18T06:41:44.060Z,79.20
2019-03-18T06:44:13.024Z,78.95
2019-03-18T06:46:41.944Z,78.98
2019-03-18T06:49:10.563Z,79.29
2019-03-18T06:51:39.811Z,78.93
2019-03-18T06:54:08.504Z,78.88
2019-03-18T06:56:37.358Z,79.01
2019-03-18T06:59:06.280Z,78.66
2019-03-18T07:01:35.499Z,78.95
2019-03-18T07:04:04.131Z,78.58
2019-03-18T07:06:33.593Z,78.04
2019-03-18T07:09:02.575Z,77.68
2019-03-18T07:11:31.457Z,77.90
2019-03-18T07:14:00.678Z,78.13
2019-03-18T07:16:29.778Z,77.27
2019-03-18T07:18:58.401Z,77.26
2019-03-18T07:21:27.942Z,76.63
2019-03-18T07:23:56.512Z,77.32
2019-03-18T07:26:25.172Z,78.21
2019-03-18T07:28:54.118Z,79.63
2019-03-18T07:31:22.759Z,80.50
2019-03-18T07:33:51.389Z,80.21
2019-03-18T07:36:20.285Z,80.60
2019-03-18T07:38:49.174Z,81.26
2019-03-18T07:41:18.377Z,82.33
2019-03-18T07:43:47.578Z,82.33
2019-03-18T07:46:16.475Z,82.93
2019-03-18T07:48:45.386Z,81.59
2019-03-18T07:51:14.007Z,81.63
2019-03-18T07:53:42.934Z,80.68
2019-03-18T07:56:11.931Z,81.18
2019-03-18T07:58:40.920Z,80.80
2019-03-18T08:01:09.839Z,81.11
2019-03-18T08:03:38.433Z,80.27
2019-03-18T08:06:07.105Z,80.34
2019-03-18T08:08:35.823Z,79.69
2019-03-18T08:11:04.645Z,79.68
2019-03-18T08:13:33.301Z,79.18
2019-03-18T08:16:02.226Z,79.19
2019-03-18T08:18:42.438Z,78.29
2019-03-18T08:21:01.450Z,77.67
2019-03-18T08:23:30.456Z,79.04
2019-03-18T08:25:59.437Z,79.04
2019-03-18T08:28:28.054Z,79.22
2019-03-18T08:30:57.015Z,79.73
2019-03-18T08:33:25.907Z,80.62
2019-03-18T08:35:54.954Z,82.62
2019-03-18T08:38:23.674Z,81.83
2019-03-18T08:40:52.585Z,81.32
2019-03-18T08:43:21.778Z,80.55
2019-03-18T08:45:50.402Z,81.39
2019-03-18T08:48:19.889Z,81.16
2019-03-18T08:50:48.511Z,79.49
2019-03-18T08:53:17.159Z,78.26
2019-03-18T08:55:46.440Z,78.29
2019-03-18T08:58:15.458Z,77.63
2019-03-18T09:00:44.431Z,75.87
2019-03-18T09:03:13.326Z,75.66
2019-03-18T09:05:42.316Z,75.17
2019-03-18T09:08:10.932Z,72.32
2019-03-18T09:10:39.603Z,73.02
2019-03-18T09:13:08.885Z,73.32
2019-03-18T09:15:37.485Z,72.75
2019-03-18T09:18:07.077Z,71.40
2019-03-18T09:20:36.068Z,71.40
2019-03-18T09:23:05.055Z,72.42
2019-03-18T09:25:33.714Z,72.42
2019-03-18T09:28:02.651Z,72.96
2019-03-18T09:30:31.268Z,72.29
2019-03-18T09:33:00.219Z,72.29
2019-03-18T09:35:29.118Z,71.33
2019-03-18T09:37:58.011Z,71.33
2019-03-18T09:40:29.290Z,70.80
2019-03-18T09:42:57.853Z,70.55
2019-03-18T09:45:26.809Z,70.25
2019-03-18T09:47:56.335Z,70.25
2019-03-18T09:50:25.059Z,70.18
2019-03-18T09:52:53.703Z,70.08
2019-03-18T09:55:22.345Z,69.07
2019-03-18T09:57:51.282Z,69.76
2019-03-18T10:00:20.292Z,69.28
2019-03-18T10:02:49.281Z,69.58
2019-03-18T10:05:17.890Z,68.50
2019-03-18T10:07:46.871Z,67.25
2019-03-18T10:10:15.953Z,68.25
2019-03-18T10:12:44.832Z,67.49
2019-03-18T10:15:13.573Z,65.48
2019-03-18T10:17:42.926Z,65.48
2019-03-18T10:20:11.921Z,66.43
2019-03-18T10:22:40.551Z,68.70
2019-03-18T10:25:09.600Z,67.25
2019-03-18T10:27:38.494Z,66.26
2019-03-18T10:30:07.587Z,66.18
2019-03-18T10:32:36.237Z,66.44
2019-03-18T10:35:05.782Z,66.44
2019-03-18T10:37:34.673Z,66.60
2019-03-18T10:40:05.723Z,66.31
2019-03-18T10:42:34.608Z,64.07
2019-03-18T10:45:03.493Z,63.32
2019-03-18T10:47:32.800Z,62.51
2019-03-18T10:50:02.005Z,61.49
2019-03-18T10:52:30.602Z,61.96
2019-03-18T10:54:59.992Z,61.03
2019-03-18T10:57:28.636Z,62.54
2019-03-18T10:59:57.565Z,62.54
2019-03-18T11:02:26.185Z,64.50
2019-03-18T11:04:55.158Z,66.25
2019-03-18T11:07:24.039Z,72.59
2019-03-18T11:09:52.712Z,72.59
2019-03-18T11:12:21.921Z,76.15
2019-03-18T11:14:50.809Z,78.22
2019-03-18T11:17:19.477Z,78.22
2019-03-18T11:19:57.949Z,79.06
2019-03-18T11:22:19.119Z,79.07
2019-03-18T11:24:48.313Z,78.36
2019-03-18T11:27:17.310Z,73.55
2019-03-18T11:29:46.201Z,71.27
2019-03-18T11:32:15.302Z,72.43
2019-03-18T11:34:43.927Z,71.75
2019-03-18T11:37:12.881Z,72.17
2019-03-18T11:39:42.084Z,72.26
2019-03-18T11:42:10.805Z,76.56
2019-03-18T11:44:39.760Z,76.56
2019-03-18T11:47:08.416Z,81.30
2019-03-18T11:49:39.780Z,82.38
2019-03-18T11:52:08.281Z,82.38
2019-03-18T11:54:37.035Z,84.95
2019-03-18T11:57:06.157Z,85.50
2019-03-18T11:59:34.832Z,85.59
2019-03-18T12:02:03.838Z,83.80
2019-03-18T12:04:32.934Z,83.89
2019-03-18T12:07:01.665Z,83.42
2019-03-18T12:09:30.622Z,80.17
2019-03-18T12:11:59.607Z,78.65
2019-03-18T12:14:28.495Z,77.71
2019-03-18T12:16:57.807Z,77.71
2019-03-18T12:19:26.791Z,74.46
2019-03-18T12:21:55.682Z,73.28
2019-03-18T12:24:24.325Z,72.68
2019-03-18T12:26:53.260Z,69.21
2019-03-18T12:29:22.086Z,68.75
2019-03-18T12:31:51.050Z,69.46
2019-03-18T12:34:19.677Z,67.78
2019-03-18T12:36:49.046Z,67.89
2019-03-18T12:39:18.029Z,71.44
2019-03-18T12:41:46.915Z,68.70
2019-03-18T12:44:15.911Z,71.53
2019-03-18T12:46:44.800Z,69.15
2019-03-18T12:49:13.725Z,67.83
2019-03-18T12:51:42.688Z,63.66
2019-03-18T12:54:11.579Z,64.02
2019-03-18T12:56:40.465Z,63.97
2019-03-18T12:59:09.357Z,65.11
2019-03-18T13:01:37.984Z,64.88
2019-03-18T13:04:07.344Z,67.30
2019-03-18T13:06:36.347Z,66.27
2019-03-18T13:09:08.517Z,66.04
2019-03-18T13:11:37.518Z,66.01
2019-03-18T13:14:06.172Z,63.03
2019-03-18T13:16:35.080Z,61.99
2019-03-18T13:19:03.991Z,62.72
2019-03-18T13:21:33.322Z,64.30
2019-03-18T13:24:01.984Z,65.77
2019-03-18T13:26:30.954Z,65.77
2019-03-18T13:28:59.845Z,65.96
2019-03-18T13:31:28.474Z,67.22
2019-03-18T13:33:57.422Z,67.36
2019-03-18T13:36:26.065Z,67.36
2019-03-18T13:38:54.711Z,68.34
2019-03-18T13:41:23.329Z,68.34
2019-03-18T13:43:52.269Z,72.22
2019-03-18T13:46:20.891Z,75.65
2019-03-18T13:48:49.771Z,73.23
2019-03-18T13:51:21.154Z,69.47
2019-03-18T13:53:49.004Z,68.67
2019-03-18T13:56:17.957Z,67.72
2019-03-18T13:58:46.581Z,69.74
2019-03-18T14:01:15.535Z,71.44
2019-03-18T14:03:44.547Z,71.44
2019-03-18T14:06:13.699Z,77.28
2019-03-18T14:08:42.703Z,77.10
2019-03-18T14:11:11.407Z,77.03
2019-03-18T14:13:40.403Z,77.03
2019-03-18T14:16:09.055Z,77.24
2019-03-18T14:18:37.986Z,78.54
2019-03-18T14:21:06.690Z,74.46
2019-03-18T14:23:35.967Z,74.46
2019-03-18T14:26:05.065Z,75.00
2019-03-18T14:28:34.055Z,75.00
2019-03-18T14:31:02.722Z,75.22
2019-03-18T14:33:31.351Z,75.22
2019-03-18T14:35:59.984Z,74.05
2019-03-18T14:38:29.248Z,72.58
2019-03-18T14:40:57.852Z,72.58
2019-03-18T14:43:26.788Z,71.82
2019-03-18T14:45:55.695Z,71.13
2019-03-18T14:48:24.679Z,71.62
2019-03-18T14:50:53.684Z,72.49
2019-03-18T14:53:22.333Z,71.13
2019-03-18T14:55:51.243Z,70.89
2019-03-18T14:58:20.444Z,69.88
2019-03-18T15:00:49.347Z,70.39
2019-03-18T15:03:18.643Z,67.55
2019-03-18T15:05:47.629Z,66.27
2019-03-18T15:08:16.524Z,66.15
2019-03-18T15:10:45.413Z,66.29
2019-03-18T15:13:14.035Z,67.04
2019-03-18T15:15:42.930Z,66.78
2019-03-18T15:18:11.664Z,70.87
2019-03-18T15:20:40.584Z,70.87
2019-03-18T15:23:09.328Z,66.11
2019-03-18T15:25:38.248Z,66.65
2019-03-18T15:28:07.139Z,67.08
2019-03-18T15:30:36.030Z,66.70
2019-03-18T15:33:04.726Z,64.92
2019-03-18T15:35:33.336Z,64.46
2019-03-18T15:38:02.085Z,66.49
2019-03-18T15:40:30.829Z,67.70
2019-03-18T15:42:59.463Z,68.27
2019-03-18T15:45:28.764Z,69.21
2019-03-18T15:47:57.869Z,68.93
2019-03-18T15:50:26.968Z,69.19
2019-03-18T15:52:56.219Z,70.61
2019-03-18T15:55:24.877Z,70.80
2019-03-18T15:57:53.594Z,71.02
2019-03-18T16:00:22.522Z,70.78
2019-03-18T16:02:51.515Z,70.42
2019-03-18T16:05:20.141Z,70.96
2019-03-18T16:07:49.206Z,70.96
2019-03-18T16:10:17.936Z,71.26
2019-03-18T16:12:46.888Z,70.65
2019-03-18T16:15:15.527Z,71.25
2019-03-18T16:17:44.181Z,70.58
2019-03-18T16:20:14.198Z,70.58
2019-03-18T16:22:42.831Z,70.81
2019-03-18T16:25:11.685Z,71.41
2019-03-18T16:27:40.652Z,72.04
2019-03-18T16:30:11.369Z,72.04
2019-03-18T16:32:40.685Z,71.63
2019-03-18T16:35:10.313Z,72.31
2019-03-18T16:37:39.433Z,72.81
2019-03-18T16:40:09.725Z,72.37
2019-03-18T16:42:38.971Z,73.44
2019-03-18T16:45:08.947Z,72.35
2019-03-18T16:47:37.781Z,72.35
2019-03-18T16:50:08.138Z,72.23
2019-03-18T16:52:37.020Z,72.29
2019-03-18T16:55:05.779Z,71.56
2019-03-18T16:57:34.700Z,71.71
2019-03-18T17:00:03.592Z,71.23
2019-03-18T17:02:32.617Z,70.83
2019-03-18T17:05:01.500Z,70.83
2019-03-18T17:07:30.287Z,71.00
2019-03-18T17:09:58.962Z,69.95
2019-03-18T17:12:28.024Z,69.98
2019-03-18T17:14:56.651Z,69.98
2019-03-18T17:17:25.512Z,70.74
2019-03-18T17:19:54.113Z,71.41
2019-03-18T17:22:23.012Z,71.53
2019-03-18T17:24:51.641Z,70.98
2019-03-18T17:27:20.513Z,71.04
2019-03-18T17:29:49.206Z,71.04
2019-03-18T17:32:28.759Z,70.47
2019-03-18T17:34:59.424Z,70.47
2019-03-18T17:37:28.058Z,70.64
2019-03-18T17:39:56.740Z,73.04
2019-03-18T17:42:25.400Z,70.58
2019-03-18T17:44:54.016Z,70.58
2019-03-18T17:47:22.926Z,70.44
2019-03-18T17:49:53.070Z,70.89
2019-03-18T17:52:21.685Z,70.89
2019-03-18T17:54:50.608Z,71.09
2019-03-18T17:57:19.784Z,71.09
2019-03-18T17:59:48.643Z,70.70
2019-03-18T18:02:17.789Z,70.54
2019-03-18T18:04:46.454Z,70.29
2019-03-18T18:07:15.339Z,70.21
2019-03-18T18:09:43.970Z,70.21
2019-03-18T18:12:12.695Z,69.81
2019-03-18T18:14:41.300Z,69.84
2019-03-18T18:17:10.028Z,69.46
2019-03-18T18:19:38.903Z,69.34
2019-03-18T18:22:07.776Z,69.19
2019-03-18T18:24:36.918Z,69.14
2019-03-18T18:27:05.649Z,69.25
2019-03-18T18:29:34.514Z,69.25
2019-03-18T18:32:03.388Z,69.38
2019-03-18T18:34:32.345Z,69.19
2019-03-18T18:37:01.229Z,69.20
2019-03-18T18:39:30.146Z,68.73
2019-03-18T18:41:59.042Z,68.73
2019-03-18T18:44:27.673Z,68.79
2019-03-18T18:46:56.512Z,68.69
2019-03-18T18:49:25.390Z,69.07
2019-03-18T18:51:54.516Z,69.10
2019-03-18T18:54:23.166Z,69.10
2019-03-18T18:56:52.039Z,73.03
2019-03-18T18:59:21.779Z,73.03
2019-03-18T19:01:50.439Z,70.38
2019-03-18T19:04:21.971Z,70.38
2019-03-18T19:06:50.613Z,68.43
2019-03-18T19:09:19.517Z,68.43
2019-03-18T19:11:48.166Z,69.21
2019-03-18T19:14:16.776Z,69.69
2019-03-18T19:16:45.660Z,69.77
2019-03-18T19:19:14.539Z,69.77
2019-03-18T19:21:43.723Z,70.46
2019-03-18T19:24:12.607Z,70.46
2019-03-18T19:26:41.513Z,70.86
2019-03-18T19:29:10.752Z,70.63
2019-03-18T19:31:39.367Z,70.45
2019-03-18T19:34:08.254Z,70.62
2019-03-18T19:36:37.101Z,71.12
2019-03-18T19:39:07.532Z,71.03
2019-03-18T19:41:36.430Z,71.03
2019-03-18T19:44:05.118Z,72.31
2019-03-18T19:46:33.720Z,72.31
2019-03-18T19:49:02.470Z,72.46
2019-03-18T19:51:31.196Z,72.46
2019-03-18T19:54:00.308Z,72.45
2019-03-18T19:56:29.206Z,72.58
2019-03-18T19:58:58.323Z,72.98
2019-03-18T20:01:26.980Z,73.21
2019-03-18T20:03:55.841Z,73.50
2019-03-18T20:06:24.489Z,74.19
2019-03-18T20:08:53.350Z,74.65
2019-03-18T20:11:22.477Z,74.65
2019-03-18T20:13:51.106Z,74.43
2019-03-18T20:16:20.200Z,74.84
2019-03-18T20:18:50.167Z,74.70
2019-03-18T20:21:19.297Z,74.70
2019-03-18T20:24:00.059Z,74.88
2019-03-18T20:26:18.985Z,77.02
2019-03-18T20:28:47.589Z,77.02
2019-03-18T20:31:25.434Z,75.94
2019-03-18T20:33:46.983Z,74.68
2019-03-18T20:36:15.986Z,73.89
2019-03-18T20:38:44.996Z,73.89
2019-03-18T20:41:13.883Z,72.68
2019-03-18T20:43:42.492Z,73.17
2019-03-18T20:46:11.360Z,73.29
2019-03-18T20:48:40.164Z,74.05
2019-03-18T20:51:09.018Z,74.62
2019-03-18T20:53:37.624Z,74.46
2019-03-18T20:56:06.599Z,74.46
2019-03-18T20:58:35.242Z,74.68
2019-03-18T21:01:04.280Z,74.94
2019-03-18T21:03:33.168Z,74.45
2019-03-18T21:06:01.884Z,74.45
2019-03-18T21:08:30.516Z,74.62
2019-03-18T21:10:59.433Z,74.62
2019-03-18T21:13:28.418Z,75.18
2019-03-18T21:15:57.063Z,75.33
2019-03-18T21:18:26.414Z,75.33
2019-03-18T21:20:55.422Z,74.89
2019-03-18T21:23:24.297Z,75.04
2019-03-18T21:25:52.945Z,75.04
2019-03-18T21:28:21.635Z,75.40
2019-03-18T21:30:50.588Z,75.46
2019-03-18T21:33:19.260Z,75.24
2019-03-18T21:35:49.404Z,75.50
2019-03-18T21:38:18.566Z,75.73
2019-03-18T21:40:47.458Z,75.61
2019-03-18T21:43:16.357Z,75.69
2019-03-18T21:45:45.355Z,76.36
2019-03-18T21:48:13.992Z,76.36
2019-03-18T21:50:42.599Z,76.11
2019-03-18T21:53:11.539Z,76.61
2019-03-18T21:55:40.217Z,76.42
2019-03-18T21:58:09.451Z,76.19
2019-03-18T22:00:38.798Z,76.91
2019-03-18T22:03:07.490Z,76.24
2019-03-18T22:05:36.483Z,76.24
2019-03-18T22:08:05.573Z,76.48
2019-03-18T22:10:34.252Z,76.65
2019-03-18T22:13:03.256Z,76.91
2019-03-18T22:15:32.565Z,77.54
2019-03-18T22:18:01.526Z,77.02
2019-03-18T22:20:30.185Z,76.77
2019-03-18T22:22:59.532Z,77.04
2019-03-18T22:25:28.437Z,77.00
2019-03-18T22:27:57.417Z,77.30
2019-03-18T22:30:26.037Z,77.51
2019-03-18T22:32:54.998Z,77.59
2019-03-18T22:35:23.905Z,77.55
2019-03-18T22:37:52.937Z,77.94
2019-03-18T22:40:21.875Z,77.86
2019-03-18T22:42:50.770Z,78.47
2019-03-18T22:45:19.379Z,78.09
2019-03-18T22:47:47.999Z,78.16
2019-03-18T22:50:17.448Z,78.01
2019-03-18T22:52:46.332Z,78.12
2019-03-18T22:55:15.088Z,78.48
2019-03-18T22:57:43.733Z,78.28
2019-03-18T23:00:26.538Z,77.99
2019-03-18T23:02:55.522Z,78.37
2019-03-18T23:05:24.202Z,78.16
2019-03-18T23:07:53.100Z,78.12
2019-03-18T23:10:21.724Z,78.51
2019-03-18T23:12:50.670Z,78.34
2019-03-18T23:15:19.384Z,78.28
2019-03-18T23:17:48.423Z,78.62
2019-03-18T23:20:17.452Z,78.69
2019-03-18T23:22:46.077Z,78.36
2019-03-18T23:25:15.029Z,78.51
2019-03-18T23:27:44.327Z,78.68
2019-03-18T23:30:13.324Z,78.62
2019-03-18T23:32:41.977Z,78.94
2019-03-18T23:35:11.178Z,78.92
2019-03-18T23:37:40.204Z,78.94
2019-03-18T23:40:09.195Z,78.65
2019-03-18T23:42:37.873Z,78.72
2019-03-18T23:45:06.741Z,78.98
2019-03-18T23:47:35.351Z,79.29
2019-03-18T23:50:04.452Z,79.19
2019-03-18T23:52:33.449Z,78.72
2019-03-18T23:55:02.427Z,78.76
2019-03-18T23:57:31.442Z,79.07
